Airfield :
LOGIN :

Register | Disclaimer

   EN    FR    IT 

 










Legend :    VFR   Marginal VFR   IFR   Intensive IFR   Very Intensive IFR
Visi :
Ceiling :
>= 8 km
>= 3000ft
5 to 8 km
1000 to 3000 ft
1500m to 5 km
500 to 1000 ft
800 to 1500m
200 to 500 ft
< 800m
< 200 ft
Symbols :   Thunderstorms  Fog  Heavy snow  Heavy precipitations  Wind > 20 kt
SIGMETs :     Misc.  Thunderstorms  Icing  Turbulence  Mountain Waves  Volcanic Ashes






- Airport Elevation : 13 ft
- IATA code : OST


EBOS - Oostend bruges Int.

CURRENT METAR :
  • 260150Z VRB01KT 9999 FEW027 SCT040 17/16 Q1008 TEMPO 4000 SHRA

EXPIRED METARs :
  • 260120Z 32002KT 9999 -SHRA FEW025 SCT035 BKN048 17/16 Q1008 TEMPO 4000 SHRA
  • 260050Z VRB02KT 6000 SHRA FEW025CB SCT035 BKN048 17/16 Q1008 TEMPO 4000 SHRA BECMG NSW
  • 260020Z 08003KT 030V140 4000 SHRA FEW025CB SCT035 BKN048 17/16 Q1008 BECMG 6000 NSW
  • 252350Z 07002KT 9999 -SHRA FEW025CB SCT035 18/17 Q1008 TEMPO 4000 SHRA
  • 252320Z 06001KT 9999 -SHRA FEW025CB 18/16 Q1008 TEMPO 4000 SHRA
  • 252250Z 11003KT 9999 -SHRA FEW025CB 18/16 Q1008 TEMPO 4000 SHRA

TAF TAF EBOS
Valid from the 26 at 00:00 until the 27 at 06:00 UTC


252318Z 2600/2706 VRB03KT 9999 FEW025CB SCT040
TEMPO 2600/2615 4000 SHRA
PROB30
TEMPO 2600/2606 3000 BR
TEMPO 2604/2608 BKN005
PROB30
TEMPO 2608/2613 VRB15G25KT 2500 TSRA
BECMG 2610/2612 31010KT
BECMG 2700/2702 21010KT
PROB30
TEMPO 2702/2706 BKN007



MET'MAP, your aeronautical weather chart ! - Copyright ORBIFLY December 2007 - Disclaimer

ORBIFLY MET'MAP TEAM :

Programming & Development : Alexandra Zaïnal
Concept & original design : Baudouin d'Aumeries
Assistance for programming : Marc-Olivier Méhu
Technical & hardware support : Manuel Goepfert

Contact : metmap@orbifly.com




SOURCES & CREDITS :

   NOAA